Terminal Aerodrome Forecast
Issued by NWS Mobile, AL

Home | Current Version | Previous Version | Text Only | Print | Product List | Glossary On
Versions: 1 2 3 4 5 6 7 8 9 10 11 12 13 14 15 16 17 18 19 20 21 22 23 24 25 26 27 28 29 30 31 32 33 34 35 36 37 38
000
FTUS44 KMOB 011100 RRA
TAFMOB
TAF
KMOB 011155Z 0112/0212 08007KT P6SM OVC004
      TEMPO 0112/0114 1SM BR BKN002
     FM011700 13012KT 6SM -RA BR OVC009
     FM020100 07006KT 4SM -RA BR OVC007
      TEMPO 0208/0212 1/2SM FG VV002=

USA.gov is the U.S. government's official web portal to all federal, state and local government web resources and services.